JULY 06,2015

 

METAR SMJP 060500Z 10002KT 9999 FEW012 24/24 Q1012 NOSIG=